Time;durP1;ratioP1;P1;durP2;ratioP2;P2;SDS_P1;SDS_P2;PMS_P1;PMS_P2;Temp;Humidity;BMP_temperature;BMP_pressure;BME280_temperature;BME280_humidity;BME280_pressure;Samples;Min_cycle;Max_cycle;Signal;HPM_P1;HPM_P2
2023/10/09 00:01:09;;;;;;;1.50;1.23;;;19.30;87.90;;;;;;5031509;28;20084;-26
2023/10/09 00:03:37;;;;;;;1.92;1.23;;;18.50;72.60;;;;;;5031429;28;20077;-26
2023/10/09 00:06:04;;;;;;;2.00;1.20;;;18.40;79.90;;;;;;5031672;28;20058;-26
2023/10/09 00:08:32;;;;;;;1.90;1.30;;;19.10;87.60;;;;;;5031219;28;20096;-25
2023/10/09 00:11:13;;;;;;;1.48;1.00;;;19.20;79.00;;;;;;5042197;28;20414;-26
2023/10/09 00:13:48;;;;;;;1.95;1.15;;;19.20;87.70;;;;;;5051126;28;20233;-26
2023/10/09 00:16:23;;;;;;;1.58;1.05;;;;;;;;;;5051130;28;20052;-25
2023/10/09 00:18:50;;;;;;;2.88;1.42;;;;;;;;;;5051178;28;20077;-26
2023/10/09 00:21:20;;;;;;;1.48;1.20;;;19.30;80.20;;;;;;5042805;28;20064;-27
2023/10/09 00:23:52;;;;;;;1.40;1.10;;;;;;;;;;5051937;28;20049;-26
2023/10/09 00:26:21;;;;;;;2.28;1.10;;;19.60;88.20;;;;;;5054480;28;20053;-25
2023/10/09 00:28:51;;;;;;;1.92;1.13;;;19.20;70.10;;;;;;5054860;28;20052;-26
2023/10/09 00:31:26;;;;;;;1.52;1.17;;;19.50;87.70;;;;;;5055131;28;20103;-25
2023/10/09 00:33:54;;;;;;;1.20;1.00;;;19.10;70.60;;;;;;5054713;28;20044;-26
2023/10/09 00:36:27;;;;;;;1.48;1.10;;;;;;;;;;5054261;28;20056;-26
2023/10/09 00:38:53;;;;;;;1.85;1.25;;;19.10;76.90;;;;;;5054601;28;20045;-26
2023/10/09 00:41:24;;;;;;;1.75;1.17;;;20.30;88.30;;;;;;5054802;28;20152;-25
2023/10/09 00:43:52;;;;;;;3.08;1.25;;;19.20;70.10;;;;;;5054367;28;20049;-27
2023/10/09 00:46:24;;;;;;;2.95;1.40;;;19.40;70.20;;;;;;5054493;28;20049;-26
2023/10/09 00:48:53;;;;;;;1.27;1.05;;;19.20;70.10;;;;;;5054456;28;20052;-27
2023/10/09 00:51:22;;;;;;;1.65;1.10;;;;;;;;;;5054089;28;20049;-26
2023/10/09 00:53:51;;;;;;;2.05;1.38;;;19.00;79.80;;;;;;5054642;28;20048;-26
2023/10/09 00:56:28;;;;;;;1.70;1.17;;;;;;;;;;5054400;28;20103;-26
2023/10/09 00:59:00;;;;;;;2.08;1.08;;;19.40;87.90;;;;;;5054141;28;20040;-27
2023/10/09 01:01:34;;;;;;;1.95;1.17;;;18.90;87.70;;;;;;5034278;28;20056;-26
2023/10/09 01:04:10;;;;;;;2.20;1.43;;;18.20;69.70;;;;;;5034264;28;20056;-26
2023/10/09 01:06:43;;;;;;;2.53;1.40;;;18.70;87.80;;;;;;5034298;28;20514;-25
2023/10/09 01:09:11;;;;;;;3.17;1.48;;;;;;;;;;5034234;28;20045;-27
2023/10/09 01:11:47;;;;;;;1.35;1.15;;;18.80;75.00;;;;;;5034211;28;20076;-25
2023/10/09 01:14:15;;;;;;;1.63;1.10;;;18.90;75.20;;;;;;5033826;28;20115;-27
2023/10/09 01:16:43;;;;;;;1.48;1.20;;;;;;;;;;5042099;28;20052;-26
2023/10/09 01:19:24;;;;;;;2.35;1.50;;;;;;;;;;5034127;28;20052;-28
2023/10/09 01:21:51;;;;;;;3.03;1.40;;;20.30;88.30;;;;;;5035483;28;20502;-26
2023/10/09 01:24:20;;;;;;;3.53;1.60;;;18.90;87.90;;;;;;5053770;28;20538;-25
2023/10/09 01:26:48;;;;;;;2.03;1.40;;;19.00;84.50;;;;;;5053627;28;20056;-26
2023/10/09 01:29:18;;;;;;;2.08;1.38;;;19.20;70.20;;;;;;5053442;28;20080;-26
2023/10/09 01:31:51;;;;;;;2.72;1.48;;;19.20;70.20;;;;;;5053717;28;20049;-26
2023/10/09 01:34:19;;;;;;;1.42;1.20;;;19.40;72.00;;;;;;5052846;28;20047;-26
2023/10/09 01:36:48;;;;;;;2.10;1.20;;;18.80;87.60;;;;;;5052957;28;20056;-26
2023/10/09 01:39:23;;;;;;;1.75;1.23;;;19.40;87.70;;;;;;5053596;28;20045;-25
2023/10/09 01:41:57;;;;;;;1.75;1.20;;;19.20;87.70;;;;;;5053352;28;20049;-26
2023/10/09 01:44:26;;;;;;;2.75;1.52;;;19.20;88.00;;;;;;5053715;28;20127;-26
2023/10/09 01:46:55;;;;;;;2.58;1.52;;;;;;;;;;5053320;28;20048;-26
2023/10/09 01:49:29;;;;;;;1.63;1.25;;;19.40;88.30;;;;;;5052893;28;20056;-25
2023/10/09 01:51:58;;;;;;;2.28;1.30;;;19.60;88.00;;;;;;5053388;28;20045;-26
2023/10/09 01:54:36;;;;;;;3.08;1.63;;;19.10;70.10;;;;;;5053274;28;20132;-25
2023/10/09 01:57:09;;;;;;;2.20;1.40;;;19.20;88.20;;;;;;5053291;28;20052;-25
2023/10/09 01:59:38;;;;;;;2.15;1.30;;;;;;;;;;5053081;28;20049;-25
2023/10/09 02:02:15;;;;;;;2.28;1.50;;;19.30;88.30;;;;;;5053221;28;20052;-25
2023/10/09 02:04:41;;;;;;;2.05;1.40;;;19.60;73.20;;;;;;5053017;28;20110;-26
2023/10/09 02:07:09;;;;;;;1.95;1.35;;;20.20;78.20;;;;;;5052927;28;20450;-26
2023/10/09 02:09:44;;;;;;;2.38;1.40;;;;;;;;;;5052675;28;20072;-27
2023/10/09 02:12:13;;;;;;;2.08;1.27;;;19.10;87.90;;;;;;5053029;28;20497;-27
2023/10/09 02:14:41;;;;;;;2.25;1.50;;;;;;;;;;5052544;28;20053;-26
2023/10/09 02:17:09;;;;;;;1.83;1.38;;;20.20;77.40;;;;;;5052527;28;20049;-26
2023/10/09 02:19:40;;;;;;;2.38;1.45;;;;;;;;;;5052890;28;20049;-26
2023/10/09 02:22:12;;;;;;;1.75;1.38;;;19.50;88.30;;;;;;5048992;28;20041;-26
2023/10/09 02:24:50;;;;;;;2.25;1.38;;;18.10;87.30;;;;;;5052169;28;20067;-27
2023/10/09 02:27:40;;;;;;;2.70;1.50;;;18.80;81.60;;;;;;5052563;28;20045;-25
2023/10/09 02:30:17;;;;;;;3.28;1.60;;;19.30;74.70;;;;;;5052225;28;20421;-26
2023/10/09 02:32:44;;;;;;;1.90;1.40;;;19.20;88.30;;;;;;5052758;28;20049;-24
2023/10/09 02:35:20;;;;;;;2.00;1.40;;;18.70;69.90;;;;;;5052424;28;20055;-26
2023/10/09 02:37:47;;;;;;;3.00;1.85;;;18.90;87.80;;;;;;5051568;28;20440;-25
2023/10/09 02:40:23;;;;;;;2.92;1.63;;;19.30;88.20;;;;;;5052286;28;20418;-27
2023/10/09 02:42:51;;;;;;;2.40;1.42;;;19.60;88.30;;;;;;5052239;28;20045;-26
2023/10/09 02:45:19;;;;;;;2.47;1.73;;;18.90;88.00;;;;;;5051802;28;20102;-25
2023/10/09 02:47:48;;;;;;;3.38;1.73;;;18.90;88.00;;;;;;5051751;28;20490;-26
2023/10/09 02:50:21;;;;;;;4.00;1.90;;;18.20;87.70;;;;;;5051812;28;20049;-26
2023/10/09 02:52:52;;;;;;;2.67;1.58;;;18.90;87.70;;;;;;5052444;28;20045;-26
2023/10/09 02:55:25;;;;;;;2.53;1.65;;;19.10;72.90;;;;;;5052237;28;20045;-26
2023/10/09 02:58:04;;;;;;;2.78;1.73;;;19.40;88.20;;;;;;5051931;28;20414;-25
2023/10/09 03:00:32;;;;;;;2.30;1.80;;;;;;;;;;5052006;28;20057;-27
2023/10/09 03:02:59;;;;;;;3.15;1.67;;;;;;;;;;5052188;28;20084;-26
2023/10/09 03:05:28;;;;;;;2.88;2.00;;;;;;;;;;5052017;28;20132;-25
2023/10/09 03:07:55;;;;;;;2.72;1.88;;;19.00;88.00;;;;;;5051989;28;20052;-24
2023/10/09 03:10:23;;;;;;;2.78;1.92;;;19.30;70.20;;;;;;5040664;28;20137;-25
2023/10/09 03:12:52;;;;;;;3.70;1.92;;;;;;;;;;5031980;28;20562;-27
2023/10/09 03:15:20;;;;;;;3.22;1.83;;;20.00;88.10;;;;;;5031420;28;20056;-24
2023/10/09 03:17:48;;;;;;;2.90;1.90;;;18.80;85.40;;;;;;5032063;28;20060;-24
2023/10/09 03:20:17;;;;;;;2.67;1.98;;;18.60;87.30;;;;;;5036883;28;20498;-25
2023/10/09 03:22:44;;;;;;;3.63;2.00;;;;;;;;;;5043162;28;20124;-27
2023/10/09 03:25:14;;;;;;;2.95;2.03;;;19.50;86.20;;;;;;5031718;28;20495;-24
2023/10/09 03:27:44;;;;;;;3.58;2.00;;;19.50;86.50;;;;;;5031809;28;20053;-24
2023/10/09 03:30:16;;;;;;;2.80;1.90;;;19.70;88.00;;;;;;5031732;28;20057;-25
2023/10/09 03:32:47;;;;;;;2.92;1.90;;;18.90;87.70;;;;;;5031633;28;20107;-24
2023/10/09 03:35:17;;;;;;;3.08;1.75;;;19.50;88.10;;;;;;5031822;28;20049;-24
2023/10/09 03:37:43;;;;;;;3.15;2.15;;;19.40;87.90;;;;;;5047491;28;20064;-24
2023/10/09 03:40:17;;;;;;;3.17;1.83;;;19.20;70.00;;;;;;5051523;28;20131;-27
2023/10/09 03:42:44;;;;;;;2.83;2.10;;;19.20;87.50;;;;;;5051505;28;20085;-24
2023/10/09 03:45:18;;;;;;;4.38;2.50;;;19.60;87.60;;;;;;5051490;28;20117;-24
2023/10/09 03:47:48;;;;;;;3.00;2.10;;;19.20;69.90;;;;;;5051260;28;20494;-26
2023/10/09 03:50:26;;;;;;;3.00;2.30;;;;;;;;;;5051503;28;20098;-27
2023/10/09 03:52:54;;;;;;;3.53;1.90;;;19.60;73.50;;;;;;5051127;28;20045;-24
2023/10/09 03:55:27;;;;;;;2.83;1.98;;;19.30;70.00;;;;;;5051334;28;20041;-31
2023/10/09 03:57:55;;;;;;;3.28;2.22;;;18.60;87.20;;;;;;5053508;28;20052;-34
2023/10/09 04:00:27;;;;;;;3.22;2.33;;;19.10;87.80;;;;;;5055425;28;20110;-33
2023/10/09 04:02:56;;;;;;;3.40;2.22;;;19.60;87.60;;;;;;5055396;28;20498;-34
2023/10/09 04:05:23;;;;;;;3.33;2.20;;;19.40;72.00;;;;;;5054318;28;20045;-31
2023/10/09 04:07:53;;;;;;;3.97;2.67;;;19.70;87.60;;;;;;5034971;28;20483;-32
2023/10/09 04:10:43;;;;;;;3.92;2.33;;;18.80;75.00;;;;;;5053602;28;20059;-33
2023/10/09 04:13:12;;;;;;;3.78;2.42;;;20.30;83.70;;;;;;5053871;28;20456;-32
2023/10/09 04:15:42;;;;;;;4.00;2.50;;;19.50;87.40;;;;;;5054873;28;20060;-31
2023/10/09 04:18:15;;;;;;;3.58;2.60;;;19.00;87.60;;;;;;5055068;28;20060;-35
2023/10/09 04:21:08;;;;;;;3.08;2.33;;;18.90;79.70;;;;;;5055197;28;20056;-33
2023/10/09 04:23:59;;;;;;;5.47;2.55;;;19.70;71.50;;;;;;5054909;28;20128;-29
2023/10/09 04:26:24;;;;;;;5.28;2.95;;;18.40;87.10;;;;;;5054537;28;20494;-33
2023/10/09 04:28:52;;;;;;;4.03;2.70;;;19.60;87.70;;;;;;5054679;28;20442;-34
2023/10/09 04:31:21;;;;;;;3.80;2.60;;;19.00;86.30;;;;;;5054554;28;20540;-32
2023/10/09 04:34:21;;;;;;;3.58;2.72;;;19.40;69.70;;;;;;5055018;28;20179;-28
2023/10/09 04:36:49;;;;;;;5.22;3.00;;;;;;;;;;5054187;28;20453;-31
2023/10/09 04:39:35;;;;;;;3.97;2.75;;;;;;;;;;5054428;28;20056;-31
2023/10/09 04:42:26;;;;;;;5.28;2.67;;;19.30;87.50;;;;;;5054559;28;20049;-30
2023/10/09 04:47:37;;;;;;;3.50;2.70;;;19.20;86.60;;;;;;5054467;28;20128;-33
2023/10/09 04:50:08;;;;;;;5.47;3.08;;;19.40;69.60;;;;;;5054440;28;20080;-28
2023/10/09 04:52:52;;;;;;;4.35;3.10;;;;;;;;;;5042740;28;20399;-30
2023/10/09 04:55:24;;;;;;;5.40;3.10;;;;;;;;;;5034325;28;20045;-31
2023/10/09 04:58:00;;;;;;;5.30;3.15;;;;;;;;;;5035044;28;20095;-33
2023/10/09 05:00:46;;;;;;;5.88;3.15;;;19.70;87.70;;;;;;5034258;28;20045;-31
2023/10/09 05:03:27;;;;;;;6.95;2.90;;;19.10;87.30;;;;;;5048415;28;20056;-34
2023/10/09 05:06:20;;;;;;;4.70;3.30;;;19.20;87.10;;;;;;5054171;28;20052;-35
2023/10/09 05:08:47;;;;;;;4.07;2.83;;;;;;;;;;5049173;28;20649;-33
2023/10/09 05:11:34;;;;;;;4.95;3.00;;;19.40;87.50;;;;;;5053814;28;20051;-32
2023/10/09 05:14:11;;;;;;;4.55;3.20;;;19.80;87.30;;;;;;5053937;28;20053;-30
2023/10/09 05:16:44;;;;;;;5.55;3.10;;;19.80;75.00;;;;;;5053943;28;20048;-31
2023/10/09 05:19:28;;;;;;;4.50;2.83;;;;;;;;;;5054002;28;20045;-32
2023/10/09 05:21:58;;;;;;;5.65;3.70;;;19.50;69.60;;;;;;5053693;28;20502;-29
2023/10/09 05:24:26;;;;;;;6.45;3.53;;;19.90;87.80;;;;;;5053622;28;20417;-31
2023/10/09 05:26:53;;;;;;;4.13;3.20;;;;;;;;;;5053702;28;20497;-29
2023/10/09 05:29:34;;;;;;;4.72;3.05;;;;;;;;;;5053803;28;20045;-29
2023/10/09 05:32:03;;;;;;;4.63;3.50;;;19.50;87.30;;;;;;5053790;28;20130;-31
2023/10/09 05:34:34;;;;;;;5.93;3.70;;;;;;;;;;5053676;28;20052;-28
2023/10/09 05:37:16;;;;;;;5.57;3.53;;;19.30;87.00;;;;;;5052986;28;20049;-24
2023/10/09 05:39:58;;;;;;;5.43;3.75;;;19.20;86.80;;;;;;5053314;28;20501;-24
2023/10/09 05:42:28;;;;;;;8.32;4.13;;;18.70;85.20;;;;;;5053654;28;20059;-25
2023/10/09 05:47:47;;;;;;;5.43;3.63;;;19.40;87.40;;;;;;5054711;28;20049;-25
2023/10/09 05:50:34;;;;;;;5.65;3.70;;;;;;;;;;5053506;28;20045;-29
2023/10/09 05:53:07;;;;;;;5.57;3.70;;;19.50;72.50;;;;;;5053481;28;20051;-25
2023/10/09 06:03:16;;;;;;;6.43;3.95;;;;;;;;;;5053222;28;20057;-24
2023/10/09 06:03:54;;;;;;;6.28;3.80;;;;;;;;;;5053065;28;20060;-24
2023/10/09 06:06:33;;;;;;;7.88;4.28;;;;;;;;;;5053048;28;20098;-23
2023/10/09 06:09:28;;;;;;;6.90;4.18;;;19.50;69.60;;;;;;5053157;28;20060;-24
2023/10/09 06:14:57;;;;;;;6.43;3.88;;;;;;;;;;5054337;28;20055;-28
2023/10/09 06:17:24;;;;;;;7.85;4.55;;;19.50;69.60;;;;;;5052412;28;20387;-24
2023/10/09 06:19:58;;;;;;;6.80;4.25;;;;;;;;;;5052404;28;20045;-26
2023/10/09 06:25:17;;;;;;;7.55;4.82;;;19.40;87.30;;;;;;5052719;28;20048;-32
2023/10/09 06:27:58;;;;;;;6.47;4.20;;;;;;;;;;5052305;28;20152;-28
2023/10/09 06:30:26;;;;;;;9.50;4.88;;;19.80;87.50;;;;;;5051821;28;20064;-31
2023/10/09 06:32:57;;;;;;;7.97;4.70;;;;;;;;;;5052673;28;20092;-32
2023/10/09 06:35:30;;;;;;;8.52;4.63;;;19.20;87.10;;;;;;5059547;28;20513;-32
2023/10/09 06:43:47;;;;;;;6.68;4.00;;;;;;;;;;5062234;28;20053;-32
2023/10/09 06:49:19;;;;;;;7.32;4.00;;;;;;;;;;5054392;28;20049;-35
2023/10/09 06:51:47;;;;;;;6.30;4.10;;;;;;;;;;5051104;28;20367;-31
2023/10/09 06:54:15;;;;;;;6.78;4.07;;;20.20;81.30;;;;;;5050399;28;20064;-33
2023/10/09 06:59:41;;;;;;;5.97;4.03;;;;;;;;;;5052420;28;20052;-30
2023/10/09 07:02:25;;;;;;;6.32;3.72;;;19.90;69.50;;;;;;5060382;28;20131;-29
2023/10/09 07:04:54;;;;;;;6.25;3.75;;;;;;;;;;5056923;28;20041;-28
2023/10/09 07:07:24;;;;;;;6.13;3.58;;;19.90;86.90;;;;;;5060845;28;20045;-33
2023/10/09 07:12:42;;;;;;;5.97;3.67;;;20.20;87.50;;;;;;5061649;28;20095;-30
2023/10/09 07:17:55;;;;;;;7.05;3.92;;;;;;;;;;5041222;28;20049;-30
2023/10/09 07:23:14;;;;;;;5.45;3.33;;;20.50;86.50;;;;;;5048832;28;20044;-31
2023/10/09 07:25:41;;;;;;;5.38;3.60;;;20.20;69.10;;;;;;5051753;28;20051;-27
2023/10/09 07:28:28;;;;;;;5.93;3.58;;;19.20;85.70;;;;;;5051298;28;20053;-31
2023/10/09 07:30:58;;;;;;;5.13;2.97;;;20.30;69.00;;;;;;5051899;28;20045;-30
2023/10/09 07:33:34;;;;;;;5.60;3.28;;;20.10;86.10;;;;;;5051146;28;20053;-33
2023/10/09 07:36:06;;;;;;;5.15;3.45;;;20.30;86.40;;;;;;5050479;28;20501;-35
2023/10/09 07:38:35;;;;;;;5.45;3.05;;;20.30;86.10;;;;;;5051571;28;20048;-33
2023/10/09 07:41:33;;;;;;;5.05;3.08;;;20.20;73.80;;;;;;5051586;28;20045;-31
2023/10/09 07:43:57;;;;;;;5.40;3.05;;;20.40;68.90;;;;;;5049683;28;20413;-29
2023/10/09 07:46:32;;;;;;;4.85;3.33;;;20.50;75.60;;;;;;5057671;28;20075;-33
2023/10/09 07:49:00;;;;;;;5.25;3.65;;;20.80;87.10;;;;;;5049463;28;20043;-31
2023/10/09 07:51:31;;;;;;;5.18;3.10;;;21.20;86.50;;;;;;5050986;28;20371;-35
2023/10/09 07:54:06;;;;;;;6.95;3.00;;;;;;;;;;5048388;28;20052;-30
2023/10/09 07:56:38;;;;;;;3.72;2.80;;;19.30;85.50;;;;;;5049031;28;20045;-31
2023/10/09 07:59:10;;;;;;;6.45;3.25;;;19.40;85.40;;;;;;5047842;28;20048;-31
2023/10/09 08:01:38;;;;;;;5.65;3.35;;;20.10;85.90;;;;;;5051502;28;20052;-35
2023/10/09 08:04:10;;;;;;;6.85;3.38;;;20.10;85.80;;;;;;5051519;28;20132;-32
2023/10/09 08:06:42;;;;;;;4.90;2.90;;;20.20;86.20;;;;;;5051635;28;20064;-33
2023/10/09 08:09:17;;;;;;;4.15;2.72;;;19.40;70.20;;;;;;5051032;28;20049;-30
2023/10/09 08:14:48;;;;;;;5.10;3.20;;;20.70;75.60;;;;;;5051214;28;20045;-30
2023/10/09 08:17:17;;;;;;;3.95;2.60;;;20.20;69.60;;;;;;5034739;28;20040;-29
2023/10/09 08:19:53;;;;;;;4.78;2.90;;;20.60;71.70;;;;;;5055534;28;20051;-34
2023/10/09 08:25:07;;;;;;;6.07;2.95;;;20.50;86.20;;;;;;5048669;28;20486;-31
2023/10/09 08:30:49;;;;;;;4.55;2.70;;;20.30;68.80;;;;;;5046021;28;20518;-27
2023/10/09 08:36:04;;;;;;;6.15;3.05;;;;;;;;;;5046210;28;20090;-29
2023/10/09 08:38:34;;;;;;;3.75;2.75;;;19.70;75.10;;;;;;5045714;28;20045;-31
2023/10/09 08:41:15;;;;;;;5.90;3.28;;;20.90;86.80;;;;;;5049254;28;20049;-29
2023/10/09 08:43:47;;;;;;;5.72;3.00;;;20.20;86.10;;;;;;5051607;28;20052;-31
2023/10/09 08:46:18;;;;;;;5.25;3.00;;;20.00;72.10;;;;;;5054407;28;20421;-31
2023/10/09 08:48:45;;;;;;;5.30;2.80;;;20.90;87.00;;;;;;5053928;28;20460;-30
2023/10/09 08:51:14;;;;;;;6.40;2.95;;;;;;;;;;5053778;28;20121;-32
2023/10/09 08:53:42;;;;;;;5.28;3.05;;;20.30;81.10;;;;;;5054216;28;20045;-32
2023/10/09 08:56:10;;;;;;;4.68;2.65;;;20.00;86.40;;;;;;5051841;28;20107;-32
2023/10/09 08:58:38;;;;;;;4.60;2.97;;;20.30;73.90;;;;;;5053501;28;20124;-29
2023/10/09 09:01:05;;;;;;;5.30;3.00;;;20.60;86.60;;;;;;5053829;28;20045;-31
2023/10/09 09:03:40;;;;;;;7.35;3.25;;;20.20;86.60;;;;;;5054021;28;20132;-30
2023/10/09 09:06:07;;;;;;;6.00;3.13;;;19.20;86.90;;;;;;5054177;28;20079;-30
2023/10/09 09:08:36;;;;;;;5.35;2.97;;;20.40;86.60;;;;;;5053852;28;20585;-29
2023/10/09 09:11:11;;;;;;;5.65;3.08;;;20.10;69.20;;;;;;5054257;28;20544;-28
2023/10/09 09:13:48;;;;;;;4.75;3.20;;;20.20;75.00;;;;;;5054231;28;20048;-31
2023/10/09 09:16:16;;;;;;;5.25;3.10;;;20.40;80.40;;;;;;5053880;28;20049;-31
2023/10/09 09:19:00;;;;;;;6.13;3.22;;;20.30;76.10;;;;;;5054076;28;20503;-31
2023/10/09 09:21:27;;;;;;;4.78;3.08;;;20.20;86.90;;;;;;5053053;28;20052;-33
2023/10/09 09:23:56;;;;;;;6.40;3.10;;;20.30;71.60;;;;;;5052678;28;20128;-31
2023/10/09 09:26:36;;;;;;;6.63;3.20;;;20.60;86.10;;;;;;5059677;28;20048;-30
2023/10/09 09:29:05;;;;;;;5.40;3.13;;;;;;;;;;5060249;28;20055;-28
2023/10/09 09:31:37;;;;;;;5.95;3.35;;;19.70;87.50;;;;;;5062863;28;20094;-33
2023/10/09 09:34:13;;;;;;;6.80;3.30;;;19.80;87.20;;;;;;5060965;28;20135;-31
2023/10/09 09:36:53;;;;;;;4.45;2.90;;;20.70;87.30;;;;;;5052648;28;20049;-33
2023/10/09 09:39:26;;;;;;;6.18;3.33;;;19.70;86.90;;;;;;5053818;28;20048;-31
2023/10/09 09:41:53;;;;;;;4.53;3.17;;;;;;;;;;5053441;28;20045;-28
2023/10/09 09:44:21;;;;;;;6.40;3.30;;;20.30;87.30;;;;;;5040882;28;20132;-34
2023/10/09 09:46:48;;;;;;;4.97;3.53;;;19.70;86.90;;;;;;5039055;28;20083;-32
2023/10/09 09:49:21;;;;;;;6.22;3.08;;;20.10;87.60;;;;;;5052937;28;20565;-32
2023/10/09 09:51:48;;;;;;;5.75;3.15;;;20.50;84.80;;;;;;5053852;28;20107;-32
2023/10/09 09:54:15;;;;;;;7.90;3.35;;;;;;;;;;5044025;28;20546;-24
2023/10/09 09:56:44;;;;;;;6.60;3.03;;;19.90;87.10;;;;;;5033096;28;20053;-24
2023/10/09 09:59:13;;;;;;;7.15;3.30;;;19.50;87.00;;;;;;5033395;28;20045;-24
2023/10/09 10:01:41;;;;;;;6.30;3.22;;;19.50;87.10;;;;;;5033482;28;20053;-25
2023/10/09 10:04:13;;;;;;;5.47;2.97;;;19.80;70.10;;;;;;5033499;28;20049;-28
2023/10/09 10:06:44;;;;;;;6.93;3.75;;;20.20;75.80;;;;;;5044438;28;20052;-26
2023/10/09 10:09:11;;;;;;;9.57;4.07;;;19.40;87.10;;;;;;5053021;28;20059;-24
2023/10/09 10:11:45;;;;;;;6.28;3.20;;;19.00;87.10;;;;;;5053297;28;20136;-23
2023/10/09 10:14:21;;;;;;;6.47;3.40;;;;;;;;;;5052866;28;20128;-24
2023/10/09 10:17:16;;;;;;;8.32;3.42;;;19.40;87.40;;;;;;5053076;28;20045;-24
2023/10/09 10:20:25;;;;;;;6.18;3.58;;;18.60;84.70;;;;;;5052481;28;20100;-24
2023/10/09 10:23:17;;;;;;;3.78;2.50;;;19.90;88.10;;;;;;5046167;28;20544;-25
2023/10/09 10:25:49;;;;;;;5.10;2.83;;;19.80;87.90;;;;;;5052896;28;20052;-24
2023/10/09 10:28:28;;;;;;;5.10;2.95;;;19.50;87.90;;;;;;5052733;28;20045;-25
2023/10/09 10:30:55;;;;;;;5.97;3.42;;;;;;;;;;5051993;28;20103;-28
2023/10/09 10:33:22;;;;;;;5.57;3.00;;;19.80;88.20;;;;;;5052762;28;20459;-24
2023/10/09 10:35:52;;;;;;;5.40;2.92;;;19.30;73.80;;;;;;5051738;28;20052;-25
2023/10/09 10:38:32;;;;;;;4.75;2.90;;;19.60;74.20;;;;;;5052468;28;20072;-25
2023/10/09 10:41:12;;;;;;;5.65;2.92;;;20.80;73.60;;;;;;5055046;28;20064;-26
2023/10/09 10:43:54;;;;;;;5.03;2.90;;;;;;;;;;5051537;28;20127;-26
2023/10/09 10:46:30;;;;;;;4.63;2.88;;;19.50;73.70;;;;;;5052323;28;20735;-24
2023/10/09 10:48:59;;;;;;;5.25;3.20;;;19.20;87.80;;;;;;5051715;28;20453;-24
2023/10/09 10:51:34;;;;;;;5.03;3.08;;;;;;;;;;5051954;28;20110;-27
2023/10/09 10:54:26;;;;;;;4.70;3.00;;;19.60;70.70;;;;;;5052373;28;20049;-27
2023/10/09 10:56:51;;;;;;;6.35;3.20;;;19.60;88.00;;;;;;5053773;28;20051;-25
2023/10/09 10:59:24;;;;;;;5.88;3.25;;;;;;;;;;5057803;28;20123;-25
2023/10/09 11:02:13;;;;;;;6.72;3.05;;;20.30;82.70;;;;;;5062811;28;20047;-25
2023/10/09 11:04:41;;;;;;;4.70;2.95;;;19.90;84.30;;;;;;5062300;28;20421;-25
2023/10/09 11:07:12;;;;;;;6.13;2.80;;;19.50;71.20;;;;;;5059829;28;20402;-25
2023/10/09 11:09:59;;;;;;;5.25;2.92;;;19.30;88.20;;;;;;5061103;28;20051;-26
2023/10/09 11:12:37;;;;;;;4.80;2.60;;;19.90;75.60;;;;;;5061879;28;20570;-26
2023/10/09 11:15:29;;;;;;;4.47;2.80;;;19.50;70.80;;;;;;5062491;28;20057;-26
2023/10/09 11:17:59;;;;;;;5.30;3.00;;;20.10;88.90;;;;;;5058813;28;20500;-26
2023/10/09 11:20:32;;;;;;;7.13;3.08;;;;;;;;;;5060382;28;20064;-26
2023/10/09 11:23:14;;;;;;;6.50;3.13;;;;;;;;;;5059014;28;20098;-29
2023/10/09 11:25:50;;;;;;;5.95;3.00;;;19.90;88.70;;;;;;5062499;28;20069;-32
2023/10/09 11:28:29;;;;;;;5.90;2.92;;;20.70;88.90;;;;;;5062871;28;20041;-28
2023/10/09 11:30:56;;;;;;;4.25;2.90;;;19.60;77.90;;;;;;5050254;28;20736;-31
2023/10/09 11:33:25;;;;;;;5.85;2.75;;;;;;;;;;5048865;28;20128;-29
2023/10/09 11:35:57;;;;;;;5.95;2.88;;;19.50;76.40;;;;;;5047819;28;20049;-30
2023/10/09 11:38:24;;;;;;;4.13;2.92;;;19.30;88.50;;;;;;5049623;28;20731;-31
2023/10/09 11:43:51;;;;;;;5.35;2.95;;;19.50;71.00;;;;;;5049364;28;20494;-28
2023/10/09 11:49:40;;;;;;;5.28;2.88;;;19.50;71.10;;;;;;5050300;28;20049;-25
2023/10/09 11:54:58;;;;;;;4.25;2.60;;;19.10;87.40;;;;;;5040039;28;20049;-25
2023/10/09 11:57:31;;;;;;;4.45;2.47;;;19.20;72.70;;;;;;5050351;28;20045;-25
2023/10/09 11:59:59;;;;;;;7.00;3.10;;;19.50;71.20;;;;;;5049990;28;20474;-28
2023/10/09 12:02:26;;;;;;;4.45;2.78;;;19.60;73.80;;;;;;5050562;28;20049;-31
2023/10/09 12:04:55;;;;;;;5.68;2.45;;;18.80;88.50;;;;;;5050791;28;20609;-34
2023/10/09 12:07:23;;;;;;;3.63;2.22;;;19.40;88.30;;;;;;5050587;28;20060;-34
2023/10/09 12:09:51;;;;;;;6.20;2.60;;;;;;;;;;5050438;28;20124;-31
2023/10/09 12:12:21;;;;;;;4.13;2.70;;;19.60;73.70;;;;;;5051020;28;20187;-32
2023/10/09 12:14:51;;;;;;;8.40;5.88;;;19.50;71.10;;;;;;5051119;28;20097;-32
2023/10/09 12:17:18;;;;;;;13.65;9.55;;;;;;;;;;5051565;28;20072;-29
2023/10/09 12:19:48;;;;;;;20.75;14.70;;;;;;;;;;5054733;28;20136;-33
2023/10/09 12:22:16;;;;;;;25.50;19.23;;;19.00;88.20;;;;;;5050149;28;20052;-29
2023/10/09 12:27:20;;;;;;;30.80;21.35;;;18.90;72.90;;;;;;5655020;23;20056;-28
2023/10/09 12:29:49;;;;;;;30.77;21.33;;;19.40;81.30;;;;;;5014737;28;20054;-28
2023/10/09 12:32:20;;;;;;;30.15;20.95;;;19.80;89.10;;;;;;5012185;28;20437;-28
2023/10/09 12:34:50;;;;;;;31.40;21.50;;;20.60;83.20;;;;;;5004029;28;20060;-28
2023/10/09 12:37:17;;;;;;;29.45;22.23;;;19.60;76.00;;;;;;5014564;28;20457;-28
2023/10/09 12:39:46;;;;;;;34.83;23.65;;;19.30;88.70;;;;;;5015017;28;20053;-28
2023/10/09 12:42:13;;;;;;;38.88;21.75;;;;;;;;;;5015194;28;20078;-28
2023/10/09 12:44:40;;;;;;;31.50;20.20;;;19.90;89.20;;;;;;5015072;28;20042;-28
2023/10/09 12:47:06;;;;;;;34.60;20.98;;;19.80;88.80;;;;;;5015055;28;20617;-27
2023/10/09 12:49:34;;;;;;;37.42;21.70;;;19.20;82.80;;;;;;5013497;28;20140;-27
2023/10/09 12:52:04;;;;;;;31.13;19.50;;;19.20;75.50;;;;;;4995101;28;20585;-27
2023/10/09 12:54:31;;;;;;;30.80;19.25;;;19.50;81.20;;;;;;4987083;28;20102;-26
2023/10/09 12:56:59;;;;;;;27.33;18.95;;;20.10;88.50;;;;;;4990075;28;20550;-26
2023/10/09 12:59:26;;;;;;;31.55;18.98;;;;;;;;;;4994913;28;20054;-26
2023/10/09 13:01:57;;;;;;;33.67;19.55;;;20.00;88.10;;;;;;4995369;28;20133;-25
2023/10/09 13:04:24;;;;;;;31.45;17.35;;;19.60;88.10;;;;;;4983880;28;20422;-26
2023/10/09 13:06:54;;;;;;;28.08;18.33;;;20.30;70.50;;;;;;4977863;28;20129;-27
2023/10/09 13:09:32;;;;;;;26.65;16.42;;;20.60;87.60;;;;;;4984548;28;20042;-25
2023/10/09 13:12:00;;;;;;;24.88;16.25;;;;;;;;;;4985260;28;20058;-27
2023/10/09 13:14:27;;;;;;;24.40;15.25;;;;;;;;;;4986543;28;20720;-28
2023/10/09 13:16:55;;;;;;;23.20;14.30;;;19.70;86.40;;;;;;4987275;28;20129;-26
2023/10/09 13:19:24;;;;;;;20.98;14.60;;;20.50;75.90;;;;;;4986162;28;20057;-26
2023/10/09 13:21:52;;;;;;;20.75;14.35;;;20.80;69.70;;;;;;4986361;28;20581;-27
2023/10/09 13:24:24;;;;;;;20.10;13.77;;;21.20;74.90;;;;;;4986872;28;20050;-26
2023/10/09 13:26:57;;;;;;;21.23;13.02;;;22.00;87.00;;;;;;4988713;28;20052;-26
2023/10/09 13:29:25;;;;;;;19.35;11.82;;;;;;;;;;4989561;28;20054;-26
2023/10/09 13:31:57;;;;;;;21.40;12.82;;;;;;;;;;4987733;28;20546;-26
2023/10/09 13:34:27;;;;;;;21.05;13.00;;;20.70;73.00;;;;;;4986509;28;20074;-25
2023/10/09 13:36:58;;;;;;;16.35;11.50;;;21.00;69.00;;;;;;4987105;28;20042;-25
2023/10/09 13:39:26;;;;;;;17.00;11.07;;;21.10;85.90;;;;;;4983192;28;20050;-25
2023/10/09 13:41:57;;;;;;;19.63;11.18;;;20.80;78.20;;;;;;4987763;28;20085;-26
2023/10/09 13:44:27;;;;;;;17.73;11.13;;;21.10;85.80;;;;;;4989028;28;20053;-25
2023/10/09 13:46:53;;;;;;;16.13;10.10;;;20.80;86.20;;;;;;4984683;28;20054;-26
2023/10/09 13:49:22;;;;;;;15.82;10.00;;;;;;;;;;4987000;28;20173;-28
2023/10/09 13:51:49;;;;;;;16.27;9.77;;;21.40;77.10;;;;;;4985253;28;20053;-25
2023/10/09 13:54:21;;;;;;;13.93;9.88;;;21.20;68.70;;;;;;4984840;28;20494;-26
2023/10/09 13:56:52;;;;;;;16.27;10.00;;;20.90;85.30;;;;;;4992539;28;20129;-25
2023/10/09 13:59:20;;;;;;;12.88;8.75;;;20.40;69.40;;;;;;4983697;28;20070;-26
2023/10/09 14:01:48;;;;;;;11.98;8.63;;;21.20;68.60;;;;;;4982876;28;20050;-27
2023/10/09 14:04:18;;;;;;;12.05;8.70;;;;;;;;;;4986830;28;20125;-26
2023/10/09 14:06:45;;;;;;;12.75;8.45;;;21.10;85.50;;;;;;4985349;28;20081;-25
2023/10/09 14:09:27;;;;;;;11.32;7.65;;;21.60;85.10;;;;;;4984917;28;20057;-25
2023/10/09 14:12:05;;;;;;;11.23;8.38;;;21.20;68.60;;;;;;4983928;28;20572;-27
2023/10/09 14:14:34;;;;;;;10.98;8.25;;;21.20;68.60;;;;;;4986199;28;20063;-28
2023/10/09 14:17:01;;;;;;;11.68;7.38;;;21.20;85.40;;;;;;4983493;28;20046;-26
2023/10/09 14:19:33;;;;;;;10.25;7.70;;;;;;;;;;4981805;28;20047;-26
2023/10/09 14:22:05;;;;;;;10.75;7.63;;;;;;;;;;4984791;28;20085;-26
2023/10/09 14:24:32;;;;;;;9.80;7.47;;;;;;;;;;4984060;28;20129;-26
2023/10/09 14:27:03;;;;;;;8.65;6.85;;;21.10;68.50;;;;;;4979026;28;20065;-28
2023/10/09 14:29:30;;;;;;;9.88;6.85;;;;;;;;;;4984519;28;20046;-26
2023/10/09 14:32:00;;;;;;;9.98;6.90;;;21.10;85.50;;;;;;4985250;28;20137;-25
2023/10/09 14:34:32;;;;;;;11.40;6.90;;;21.10;85.90;;;;;;4981987;28;20050;-25